Monticello, AR

4:07 AM CDT en Julio 26, 2014 (GMT -0500)
Hwy 172 (KARMONTI2) Alt 246 ft | 33.55 °N, 91.82 °W | Change Station
Aviso en curso: Special Statement Aviso activo: Record Report

Current weather conditions updated 7 minutes ago

Clear
Despejado
69.5 ° F
Sensación térmica 69.5 ° F
N
0.0
Viento Variable Viento desde Sur
Gusts 0.0 mph

Hoy se prevé un día Más cálido que ayer.

Hoy
Alta -- | Baja -- ° F
--% Posibilidad de precipitaciones
Ayer
Alta -- | Baja -- ° F
Precip. -- pul
6:15 AM 8:11 PM
Creciente menguante, 0% visible
Presión 29.97 pul
Visibilidad 10.0 Millas
Nubes Despejado
Punto de rocío 59 ° F
Humedad 70%
Precipitaciones 0.00 pul
Espesor de la nieve No disponible.
UV 0 de una escala de 12
Polen 4.10 de una escala de 12
Calidad del aire No disponible.
Flu Activity No disponible.
METAR KLLQ 260853Z AUTO 17003KT 10SM CLR 23/21 A2998 RMK AO2 SLP148 T02330206 $

More Conditions Fewer Conditions

Presión 29.97 pul
Visibilidad 10.0 Millas
Nubes Despejado
Punto de rocío 59 ° F
Humedad 70%
Precipitaciones 0.00 pul
Espesor de la nieve No disponible.
UV 0 de una escala de 12
Polen 4.10 de una escala de 12
Calidad del aire No disponible.
Flu Activity No disponible.
METAR KLLQ 260853Z AUTO 17003KT 10SM CLR 23/21 A2998 RMK AO2 SLP148 T02330206 $

More Conditions Fewer Conditions

10-Day Weather Forecast

Almanac

Astronomía

Jul. 26, 2014 Salida Puesta
Hora real 6:15 AM CDT 8:11 PM CDT
Crepúsculo civil 5:47 AM CDT 8:39 PM CDT
Crepúsculo náutico 5:14 AM CDT 9:12 PM CDT
Crepúsculo astronómico 4:38 AM CDT 9:48 PM CDT
Luna 6:04 AM CDT 7:51 PM CDT
Horas de luz 14h 51m
Horas de luz
13h 56m
Tomorrow will be 1m 26s shorter.
Creciente menguante, 0% of the Moon is Illuminated
Hoy
Creciente menguante
Jul 26
Nueva
Ago 3
Cuarto creciente
Ago 10
Luna llena
Ago 17
Cuarto menguante

Extremos de hoy

Máximos del estado Bajos del estado

Community

WunderPhotos

Upload Photos

1,737,529 ¡fotos cargadas!

Nearby

Grosos de nieve

Estación Profundido Altura
No tenemos constancia de nieve nueva.

Actividad de terremotos

Ciudad Distance Mag. Tiempo y dato
No hay informes recientes de la actividad sísmica.
Magnitud mínima muestra es 2,5.

Temperaturas de aguas costeras

Lugar Temperatura
Sin partes meteorológicos de las estaciones

Estaciones meteorológicas cercanas

Ubicación de la estación Temp. Índice de calor Punto de rocío Humedad Viento Precip. Alt Actualizado Tipo
RAWS UAM AR, Monticello, AR 73 ° F - 72 ° F 98% SSE  a  4 mph 0.00 pul / hr 183 ft 3:00 AM CDT MADIS
Hwy 172, Monticello, AR 69.5 ° F - 59 ° F 70% Sur  a  0.0 mph 0.00 pul / hr 246 ft 4:00 AM CDT Normal
MesoWest WNCSTR , Winchester, AR 74 ° F 72 ° F - - Norte  a  - 0.00 pul / hr 162 ft 2:10 AM CDT MADIS
MesoWest DERMOT , Dermott, AR 74 ° F 72 ° F - - Norte  a  - 0.00 pul / hr 143 ft 2:35 AM CDT MADIS

Show More Stations Show Fewer Stations